Main page
METAR-TAF:

METAR-TAF

Airports :

Graz Airport

Graz, Austria

latitude: 47-00N, longitude: 015-26E, elevation: 340 m

Current weather observation

The report was made 23 minutes ago, at 05:50 UTC
Wind 2 kt from variable directions
Temperature 12°C
Humidity 82%
Pressure 1017 hPa
Visibility 10 km or more
Overcast at a height of 6000 ft
light rain,

METAR: LOWG 130550Z AUTO VRB02KT 9999 -RA OVC060 12/09 Q1017 NOSIG

Time: 08:13 (06:13 UTC)

Forecast

The report was made 58 minutes ago, at 05:15 UTC
Forecast valid from 13 at 06 UTC to 14 at 06 UTC
Wind 4 kt from the North/Northwest
Visibility 10 km or more
Broken clouds at a height of 5000 ft
Temporary
from 13 at 06 UTC to 13 at 12 UTC
light rain showers
Temporary
from 14 at 02 UTC to 14 at 05 UTC
Visibility: 1200 m
patches of fog,

TAF: LOWG 130515Z 1306/1406 34004KT 9999 BKN050 TX15/1312Z TN07/1403Z TEMPO 1306/1312 -SHRA TEMPO 1402/1405 1200 BCFG

Weather observations and forecasts of more than 4000 airports (METAR and TAF reports).

The available stations are represented by yellow and red dots on the map.

Hover mouse over dot to see the name of the station.

Then click to see weather observations and forecasts.

To change the map : click on the green buttons with a black cross to zoom in, on the green button with a dash to zoom out, or on the green arrows for adjacent maps.


METAR-TAF: